Time;durP1;ratioP1;P1;durP2;ratioP2;P2;SDS_P1;SDS_P2;PMS_P1;PMS_P2;Temp;Humidity;BMP_temperature;BMP_pressure;BME280_temperature;BME280_humidity;BME280_pressure;Samples;Min_cycle;Max_cycle;Signal;HPM_P1;HPM_P2
2023/05/04 00:01:19;;;;;;;5.65;2.38;;;8.40;99.90;;;;;;5073441;28;20483;-75
2023/05/04 00:03:44;;;;;;;6.70;2.92;;;8.40;99.90;;;;;;5073483;28;20104;-75
2023/05/04 00:06:10;;;;;;;7.57;2.42;;;8.40;99.90;;;;;;5073450;28;20020;-76
2023/05/04 00:08:35;;;;;;;7.90;2.20;;;8.40;99.90;;;;;;5055303;28;20024;-75
2023/05/04 00:11:01;;;;;;;4.88;2.38;;;8.30;99.90;;;;;;5073255;28;20025;-75
2023/05/04 00:13:26;;;;;;;7.28;3.47;;;8.40;99.90;;;;;;5073309;28;20013;-76
2023/05/04 00:15:52;;;;;;;6.45;2.63;;;8.30;99.90;;;;;;5073276;28;20105;-75
2023/05/04 00:18:18;;;;;;;6.07;2.53;;;8.20;99.90;;;;;;5055194;28;20025;-75
2023/05/04 00:20:43;;;;;;;7.40;3.15;;;8.20;99.90;;;;;;5073577;28;20028;-75
2023/05/04 00:23:09;;;;;;;4.93;2.33;;;;;;;;;;5073231;28;20025;-75
2023/05/04 00:25:35;;;;;;;9.55;3.00;;;8.20;99.90;;;;;;5073190;28;20115;-75
2023/05/04 00:28:01;;;;;;;6.22;2.85;;;;;;;;;;5073102;28;20100;-75
2023/05/04 00:30:26;;;;;;;9.20;3.53;;;8.20;99.90;;;;;;5073703;28;20025;-76
2023/05/04 00:32:52;;;;;;;6.57;2.80;;;8.20;99.90;;;;;;5072951;28;20024;-76
2023/05/04 00:35:17;;;;;;;5.30;2.85;;;8.20;99.90;;;;;;5055136;28;20476;-75
2023/05/04 00:37:44;;;;;;;7.07;2.78;;;7.60;99.90;;;;;;5076984;28;20476;-75
2023/05/04 00:40:11;;;;;;;7.18;2.97;;;8.20;99.90;;;;;;5077200;28;20415;-76
2023/05/04 00:42:36;;;;;;;8.90;2.80;;;8.20;99.90;;;;;;5077753;28;20038;-75
2023/05/04 00:45:02;;;;;;;7.45;3.08;;;8.10;99.90;;;;;;5059122;28;20035;-75
2023/05/04 00:47:28;;;;;;;8.07;3.00;;;8.10;99.90;;;;;;5077035;28;20020;-75
2023/05/04 00:49:54;;;;;;;8.00;3.30;;;8.10;99.90;;;;;;5077622;28;20048;-76
2023/05/04 00:52:21;;;;;;;8.32;2.80;;;8.00;99.90;;;;;;5076956;28;20032;-75
2023/05/04 00:54:47;;;;;;;6.15;2.85;;;8.00;99.90;;;;;;5058975;28;20111;-75
2023/05/04 00:57:15;;;;;;;5.75;2.97;;;8.00;99.90;;;;;;5076798;28;20443;-75
2023/05/04 00:59:43;;;;;;;7.23;2.77;;;8.00;99.90;;;;;;5058912;28;20025;-75
2023/05/04 01:02:08;;;;;;;6.72;3.17;;;8.00;99.90;;;;;;5076643;28;20099;-75
2023/05/04 01:04:34;;;;;;;5.70;3.20;;;8.00;99.90;;;;;;5076871;28;20060;-76
2023/05/04 01:07:21;;;;;;;6.07;3.03;;;7.90;99.90;;;;;;5076603;28;20023;-75
2023/05/04 01:09:54;;;;;;;8.10;2.55;;;7.90;99.90;;;;;;5077180;28;20036;-75
2023/05/04 01:12:57;;;;;;;7.90;3.40;;;7.90;99.90;;;;;;5076545;28;20487;-75
2023/05/04 01:15:24;;;;;;;4.95;3.03;;;8.00;99.90;;;;;;5060275;28;20033;-75
2023/05/04 01:17:50;;;;;;;4.25;2.65;;;7.90;99.90;;;;;;5077035;28;20016;-76
2023/05/04 01:20:18;;;;;;;7.22;2.85;;;7.90;99.90;;;;;;5077011;28;20024;-75
2023/05/04 01:22:44;;;;;;;4.87;2.40;;;7.80;99.90;;;;;;5076376;28;20495;-75
2023/05/04 01:25:10;;;;;;;8.13;2.80;;;7.90;99.90;;;;;;5076331;28;20286;-75
2023/05/04 01:27:36;;;;;;;6.35;3.38;;;;;;;;;;5058276;28;20025;-75
2023/05/04 01:30:04;;;;;;;4.88;2.80;;;7.90;99.90;;;;;;5076252;28;20031;-75
2023/05/04 01:32:33;;;;;;;8.52;3.67;;;7.90;99.90;;;;;;5076070;28;20537;-76
2023/05/04 01:34:59;;;;;;;4.60;2.45;;;7.80;99.90;;;;;;5076165;28;20013;-76
2023/05/04 01:37:25;;;;;;;8.30;2.60;;;7.80;99.90;;;;;;5058119;28;20052;-76
2023/05/04 01:39:51;;;;;;;7.15;2.85;;;7.80;99.90;;;;;;5076077;28;20074;-75
2023/05/04 01:42:16;;;;;;;6.30;3.08;;;7.80;99.90;;;;;;5058126;28;20032;-75
2023/05/04 01:44:42;;;;;;;7.70;3.63;;;7.80;99.90;;;;;;5058031;28;20024;-75
2023/05/04 01:47:07;;;;;;;7.38;2.50;;;7.80;99.90;;;;;;5075892;28;20060;-75
2023/05/04 01:49:33;;;;;;;7.63;2.80;;;7.80;99.90;;;;;;5057432;28;20028;-75
2023/05/04 01:52:01;;;;;;;6.43;2.78;;;7.80;99.90;;;;;;5075757;28;20502;-75
2023/05/04 01:54:27;;;;;;;6.93;2.13;;;7.70;99.90;;;;;;5057833;28;20039;-75
2023/05/04 01:56:55;;;;;;;6.82;2.58;;;7.80;99.90;;;;;;5075753;28;20096;-76
2023/05/04 01:59:20;;;;;;;7.23;2.70;;;7.70;99.90;;;;;;5075545;28;20032;-76
2023/05/04 02:01:46;;;;;;;6.05;3.00;;;7.70;99.90;;;;;;5075640;28;20271;-75
2023/05/04 02:04:11;;;;;;;5.65;2.35;;;7.70;99.90;;;;;;5075698;28;20025;-76
2023/05/04 02:06:37;;;;;;;4.32;2.33;;;7.70;99.90;;;;;;5057705;28;20016;-75
2023/05/04 02:09:03;;;;;;;4.85;2.60;;;7.70;99.90;;;;;;5075425;28;20020;-75
2023/05/04 02:11:29;;;;;;;3.65;2.22;;;7.70;99.90;;;;;;5075955;28;20044;-75
2023/05/04 02:13:54;;;;;;;9.20;3.50;;;7.60;99.90;;;;;;5075987;28;20020;-75
2023/05/04 02:16:23;;;;;;;3.80;2.25;;;7.60;99.90;;;;;;5075364;28;20480;-75
2023/05/04 02:18:48;;;;;;;12.50;2.83;;;7.60;99.90;;;;;;5057382;28;20027;-75
2023/05/04 02:21:14;;;;;;;4.97;2.55;;;7.60;99.90;;;;;;5075341;28;20540;-75
2023/05/04 02:23:39;;;;;;;4.68;2.10;;;7.50;99.90;;;;;;5075741;28;20028;-75
2023/05/04 02:26:05;;;;;;;5.57;2.22;;;7.50;99.90;;;;;;5057222;28;20461;-75
2023/05/04 02:28:33;;;;;;;7.10;2.75;;;7.40;99.90;;;;;;5057113;28;20495;-75
2023/05/04 02:31:01;;;;;;;8.65;2.50;;;7.40;99.90;;;;;;5075141;28;20084;-75
2023/05/04 02:33:27;;;;;;;5.27;2.43;;;7.40;99.90;;;;;;5075165;28;20369;-75
2023/05/04 02:35:52;;;;;;;4.78;2.22;;;7.40;99.90;;;;;;5075169;28;20032;-75
2023/05/04 02:38:18;;;;;;;6.50;3.00;;;7.30;99.90;;;;;;5074873;28;20025;-76
2023/05/04 02:40:43;;;;;;;8.52;2.38;;;7.30;99.90;;;;;;5074932;28;20035;-76
2023/05/04 02:43:09;;;;;;;5.38;2.03;;;7.30;99.90;;;;;;5056997;28;20032;-75
2023/05/04 02:45:35;;;;;;;4.72;2.17;;;7.30;99.90;;;;;;5056907;28;20016;-75
2023/05/04 02:48:01;;;;;;;8.82;2.35;;;7.20;99.90;;;;;;5075040;28;20029;-76
2023/05/04 02:50:26;;;;;;;4.88;2.03;;;7.20;99.90;;;;;;5074717;28;20135;-76
2023/05/04 02:52:52;;;;;;;7.35;2.92;;;7.20;99.90;;;;;;5074658;28;20017;-75
2023/05/04 02:55:18;;;;;;;4.53;2.10;;;7.20;99.90;;;;;;5074594;28;20028;-76
2023/05/04 02:57:43;;;;;;;6.65;2.92;;;7.10;99.90;;;;;;5056669;28;20028;-75
2023/05/04 03:00:09;;;;;;;5.32;1.90;;;7.20;99.90;;;;;;5073381;28;20107;-76
2023/05/04 03:02:35;;;;;;;6.97;2.15;;;7.10;99.90;;;;;;5074997;28;20479;-75
2023/05/04 03:05:06;;;;;;;7.35;2.60;;;7.10;99.90;;;;;;5074536;28;20021;-75
2023/05/04 03:07:32;;;;;;;5.97;2.67;;;7.00;99.90;;;;;;5074273;28;20030;-75
2023/05/04 03:09:57;;;;;;;5.88;2.58;;;7.10;99.90;;;;;;5074894;28;20020;-75
2023/05/04 03:12:26;;;;;;;5.60;2.60;;;7.10;99.90;;;;;;5056297;28;20032;-76
2023/05/04 03:14:52;;;;;;;5.28;2.13;;;7.00;99.90;;;;;;5056294;28;20021;-75
2023/05/04 03:17:17;;;;;;;4.65;2.50;;;7.00;99.90;;;;;;5056424;28;20069;-76
2023/05/04 03:19:43;;;;;;;5.55;2.38;;;7.00;99.90;;;;;;5056295;28;20077;-75
2023/05/04 03:22:09;;;;;;;5.35;1.95;;;7.00;99.90;;;;;;5056153;28;20090;-75
2023/05/04 03:24:36;;;;;;;4.72;2.03;;;7.00;99.90;;;;;;5056147;28;20032;-76
2023/05/04 03:27:02;;;;;;;7.10;1.95;;;7.00;99.90;;;;;;5073892;28;20016;-75
2023/05/04 03:29:27;;;;;;;4.43;2.35;;;7.00;99.90;;;;;;5074013;28;20032;-76
2023/05/04 03:31:53;;;;;;;6.00;1.90;;;7.00;99.90;;;;;;5073895;28;20105;-75
2023/05/04 03:34:20;;;;;;;6.93;2.08;;;7.00;99.90;;;;;;5073960;28;20032;-75
2023/05/04 03:36:47;;;;;;;6.97;2.03;;;7.00;99.90;;;;;;5055898;28;20028;-76
2023/05/04 03:39:13;;;;;;;7.07;2.25;;;6.90;99.90;;;;;;5074403;28;20380;-76
2023/05/04 03:41:38;;;;;;;5.63;2.15;;;6.90;99.90;;;;;;5073791;28;20031;-76
2023/05/04 03:44:04;;;;;;;5.68;2.10;;;5.50;99.90;;;;;;5056087;28;20028;-75
2023/05/04 03:46:29;;;;;;;3.67;2.42;;;6.90;99.90;;;;;;5073706;28;20020;-75
2023/05/04 03:48:56;;;;;;;6.38;2.78;;;6.90;99.90;;;;;;5073610;28;20107;-76
2023/05/04 03:51:21;;;;;;;7.45;2.35;;;6.90;99.90;;;;;;5073584;28;20024;-75
2023/05/04 03:53:47;;;;;;;5.50;2.08;;;6.80;99.90;;;;;;5073622;28;20027;-75
2023/05/04 03:56:12;;;;;;;7.18;2.13;;;6.80;99.90;;;;;;5074085;28;20460;-74
2023/05/04 03:58:38;;;;;;;5.57;2.20;;;6.70;99.90;;;;;;5055418;28;20209;-75
2023/05/04 04:01:04;;;;;;;9.07;2.08;;;6.70;99.90;;;;;;5073582;28;20096;-75
2023/05/04 04:03:30;;;;;;;6.25;2.35;;;6.70;99.90;;;;;;5073353;28;20029;-75
2023/05/04 04:05:56;;;;;;;6.03;3.28;;;6.70;99.90;;;;;;5055486;28;20125;-75
2023/05/04 04:08:21;;;;;;;7.47;2.10;;;6.70;99.90;;;;;;5073469;28;20484;-75
2023/05/04 04:10:47;;;;;;;5.93;2.28;;;6.70;99.90;;;;;;5072996;28;20074;-76
2023/05/04 04:13:12;;;;;;;5.95;2.60;;;6.70;99.90;;;;;;5073338;28;20020;-75
2023/05/04 04:15:39;;;;;;;7.88;2.10;;;6.70;99.90;;;;;;5055346;28;20013;-75
2023/05/04 04:18:04;;;;;;;5.35;2.20;;;6.70;99.90;;;;;;5073236;28;20048;-75
2023/05/04 04:20:31;;;;;;;5.45;1.85;;;6.70;99.90;;;;;;5073172;28;20059;-75
2023/05/04 04:22:56;;;;;;;5.22;2.50;;;6.70;99.90;;;;;;5073293;28;20017;-75
2023/05/04 04:25:23;;;;;;;4.95;2.58;;;6.70;99.90;;;;;;5055178;28;20483;-75
2023/05/04 04:27:48;;;;;;;7.28;2.72;;;6.70;99.90;;;;;;5055482;28;20024;-75
2023/05/04 04:30:14;;;;;;;7.70;2.72;;;6.70;99.90;;;;;;5073363;28;20024;-75
2023/05/04 04:32:40;;;;;;;7.70;2.33;;;6.70;99.90;;;;;;5073079;28;20391;-75
2023/05/04 04:35:06;;;;;;;9.90;2.90;;;6.70;99.90;;;;;;5055226;28;20029;-75
2023/05/04 04:37:31;;;;;;;9.05;2.75;;;6.70;99.90;;;;;;5073606;28;20569;-74
2023/05/04 04:39:57;;;;;;;4.97;2.42;;;6.70;99.90;;;;;;5055135;28;20104;-75
2023/05/04 04:42:23;;;;;;;7.22;2.75;;;6.70;99.90;;;;;;5073041;28;20016;-75
2023/05/04 04:44:48;;;;;;;4.95;2.75;;;6.70;99.90;;;;;;5073049;28;20020;-75
2023/05/04 04:47:15;;;;;;;8.13;2.85;;;6.80;99.90;;;;;;5073307;28;20033;-74
2023/05/04 04:49:41;;;;;;;6.38;2.38;;;6.80;99.90;;;;;;5072984;28;20353;-75
2023/05/04 04:52:06;;;;;;;8.13;2.60;;;6.80;99.90;;;;;;5054933;28;20024;-75
2023/05/04 04:54:32;;;;;;;7.38;2.88;;;6.80;99.90;;;;;;5072931;28;20035;-75
2023/05/04 04:56:58;;;;;;;7.40;2.50;;;6.90;99.90;;;;;;5072869;28;20039;-74
2023/05/04 04:59:24;;;;;;;5.07;2.47;;;6.90;99.90;;;;;;5072826;28;20402;-75
2023/05/04 05:01:49;;;;;;;7.18;2.30;;;7.00;99.90;;;;;;5072940;28;20111;-76
2023/05/04 05:04:17;;;;;;;7.32;2.65;;;7.00;99.90;;;;;;5072875;28;20055;-76
2023/05/04 05:06:43;;;;;;;7.95;3.00;;;7.10;99.90;;;;;;5055978;28;20021;-76
2023/05/04 05:09:08;;;;;;;4.63;2.70;;;7.00;99.90;;;;;;5072782;28;20082;-76
2023/05/04 05:11:34;;;;;;;8.52;2.67;;;7.10;99.90;;;;;;5073207;28;20024;-75
2023/05/04 05:14:00;;;;;;;5.82;2.22;;;7.20;99.90;;;;;;5054782;28;20075;-75
2023/05/04 05:16:25;;;;;;;8.10;2.63;;;7.30;99.90;;;;;;5054791;28;20021;-76
2023/05/04 05:18:51;;;;;;;7.00;2.53;;;7.30;99.90;;;;;;5072616;28;20464;-76
2023/05/04 05:21:17;;;;;;;5.97;3.00;;;7.40;99.90;;;;;;5054707;28;20112;-76
2023/05/04 05:23:42;;;;;;;4.63;2.45;;;7.50;99.90;;;;;;5074578;28;20035;-76
2023/05/04 05:26:08;;;;;;;8.23;2.83;;;7.50;99.90;;;;;;5058507;28;20051;-76
2023/05/04 05:28:36;;;;;;;8.93;3.20;;;7.60;99.90;;;;;;5076272;28;20387;-76
2023/05/04 05:31:02;;;;;;;5.80;2.55;;;7.60;99.90;;;;;;5076296;28;20035;-76
2023/05/04 05:33:28;;;;;;;8.02;3.28;;;7.70;99.90;;;;;;5076221;28;20017;-76
2023/05/04 05:35:53;;;;;;;7.50;2.60;;;7.80;99.90;;;;;;5076149;28;20031;-76
2023/05/04 05:38:19;;;;;;;7.35;2.17;;;7.80;99.90;;;;;;5076051;28;20028;-76
2023/05/04 05:40:44;;;;;;;6.75;2.35;;;7.90;99.90;;;;;;5058131;28;20040;-76
2023/05/04 05:43:10;;;;;;;7.43;2.78;;;8.00;99.90;;;;;;5076110;28;20047;-75
2023/05/04 05:45:36;;;;;;;7.55;2.63;;;8.00;99.90;;;;;;5075934;28;20025;-76
2023/05/04 05:48:01;;;;;;;5.38;2.58;;;8.10;99.90;;;;;;5075911;28;20028;-75
2023/05/04 05:50:27;;;;;;;6.53;2.95;;;8.20;99.90;;;;;;5076431;28;20361;-76
2023/05/04 05:52:52;;;;;;;7.38;2.83;;;8.20;99.90;;;;;;5057863;28;20021;-75
2023/05/04 05:55:18;;;;;;;7.40;2.72;;;8.30;99.90;;;;;;5058357;28;20016;-75
2023/05/04 05:57:43;;;;;;;5.40;2.53;;;8.40;99.90;;;;;;5075846;28;20028;-76
2023/05/04 06:00:09;;;;;;;7.47;2.63;;;8.50;99.90;;;;;;5075763;28;20031;-76
2023/05/04 06:02:35;;;;;;;7.50;3.00;;;8.60;99.90;;;;;;5075611;28;20028;-74
2023/05/04 06:05:01;;;;;;;5.47;2.58;;;8.80;99.90;;;;;;5057904;28;20032;-76
2023/05/04 06:07:26;;;;;;;5.10;2.65;;;8.90;99.90;;;;;;5075819;28;20029;-75
2023/05/04 06:09:52;;;;;;;7.15;2.72;;;9.00;99.90;;;;;;5056986;28;20032;-76
2023/05/04 06:12:17;;;;;;;7.55;3.22;;;9.20;99.90;;;;;;5073581;28;20035;-75
2023/05/04 06:14:43;;;;;;;4.70;2.63;;;9.10;99.90;;;;;;5074038;28;20025;-76
2023/05/04 06:17:09;;;;;;;7.38;3.10;;;9.20;99.90;;;;;;5057429;28;20368;-75
2023/05/04 06:19:36;;;;;;;7.25;2.80;;;9.20;99.90;;;;;;5075005;28;20012;-74
2023/05/04 06:22:03;;;;;;;7.80;2.50;;;9.30;99.90;;;;;;5074863;28;20028;-75
2023/05/04 06:24:29;;;;;;;7.60;2.63;;;9.30;99.90;;;;;;5057288;28;20480;-74
2023/05/04 06:26:55;;;;;;;10.35;2.60;;;9.40;99.90;;;;;;5075280;28;20028;-73
2023/05/04 06:29:21;;;;;;;6.97;2.83;;;9.40;99.90;;;;;;5075067;28;20025;-74
2023/05/04 06:31:47;;;;;;;7.50;3.20;;;9.50;99.90;;;;;;5057140;28;20480;-74
2023/05/04 06:34:15;;;;;;;6.03;3.47;;;9.60;99.90;;;;;;5074926;28;20023;-74
2023/05/04 06:36:41;;;;;;;8.23;2.60;;;9.70;99.90;;;;;;5057071;28;20013;-75
2023/05/04 06:39:07;;;;;;;10.10;2.92;;;9.70;99.90;;;;;;5074986;28;20099;-74
2023/05/04 06:41:32;;;;;;;5.40;2.83;;;9.90;99.90;;;;;;5074927;28;20030;-74
2023/05/04 06:43:58;;;;;;;6.35;2.83;;;9.90;99.90;;;;;;5056949;28;20021;-74
2023/05/04 06:46:24;;;;;;;7.30;3.58;;;10.20;99.90;;;;;;5074757;28;20029;-74
2023/05/04 06:48:50;;;;;;;6.60;2.67;;;10.20;99.90;;;;;;5074696;28;20096;-74
2023/05/04 06:51:15;;;;;;;8.73;2.33;;;10.40;99.90;;;;;;5075188;28;20032;-74
2023/05/04 06:53:41;;;;;;;7.57;3.05;;;10.40;99.90;;;;;;5074965;28;20095;-74
2023/05/04 06:56:07;;;;;;;6.90;2.80;;;10.50;99.90;;;;;;5056616;28;20056;-75
2023/05/04 06:58:32;;;;;;;6.28;2.50;;;10.60;99.90;;;;;;5056549;28;20025;-74
2023/05/04 07:00:58;;;;;;;4.80;2.25;;;10.70;99.90;;;;;;5074652;28;20451;-75
2023/05/04 07:03:23;;;;;;;8.52;2.72;;;10.80;99.90;;;;;;5056643;28;20089;-74
2023/05/04 07:05:49;;;;;;;4.72;2.53;;;10.90;99.90;;;;;;5074562;28;20127;-74
2023/05/04 07:08:16;;;;;;;6.28;2.45;;;11.10;99.90;;;;;;5056393;28;20035;-74
2023/05/04 07:10:42;;;;;;;7.85;2.72;;;11.30;99.90;;;;;;5074229;28;20029;-75
2023/05/04 07:13:08;;;;;;;5.85;2.47;;;11.50;99.90;;;;;;5074318;28;20165;-74
2023/05/04 07:15:34;;;;;;;7.85;2.58;;;11.60;99.90;;;;;;5074368;28;20077;-75
2023/05/04 07:18:00;;;;;;;4.47;2.38;;;11.80;99.90;;;;;;5074165;28;20024;-74
2023/05/04 07:20:28;;;;;;;10.23;3.35;;;12.10;99.90;;;;;;5074173;28;20134;-74
2023/05/04 07:22:57;;;;;;;5.78;2.47;;;12.20;99.90;;;;;;5056273;28;20021;-74
2023/05/04 07:25:24;;;;;;;6.63;2.60;;;12.50;99.90;;;;;;5073977;28;20472;-74
2023/05/04 07:27:50;;;;;;;4.97;2.40;;;13.50;99.90;;;;;;5055973;28;20017;-74
2023/05/04 07:30:16;;;;;;;4.78;2.47;;;12.60;99.90;;;;;;5056036;28;20023;-74
2023/05/04 07:32:45;;;;;;;6.13;2.60;;;12.80;99.90;;;;;;5073777;28;20506;-74
2023/05/04 07:35:11;;;;;;;;;;;13.10;99.90;;;;;;5074797;28;20024;-74
2023/05/04 07:37:36;;;;;;;6.68;1.77;;;13.00;99.90;;;;;;5073784;28;19908;-74
2023/05/04 07:40:04;;;;;;;3.90;2.05;;;13.30;99.90;;;;;;5073712;28;20104;-74
2023/05/04 07:42:30;;;;;;;4.37;1.90;;;13.50;99.90;;;;;;5055859;28;20404;-74
2023/05/04 07:44:56;;;;;;;6.30;1.73;;;13.60;99.90;;;;;;5073699;28;20025;-74
2023/05/04 07:47:22;;;;;;;3.72;1.67;;;13.80;99.90;;;;;;5073190;28;20028;-74
2023/05/04 07:49:47;;;;;;;4.15;1.20;;;13.90;99.90;;;;;;5055780;28;20028;-74
2023/05/04 07:52:13;;;;;;;4.80;2.30;;;14.20;99.90;;;;;;5055601;28;20028;-76
2023/05/04 07:54:39;;;;;;;3.90;1.60;;;14.20;99.90;;;;;;5073539;28;20025;-76
2023/05/04 07:57:04;;;;;;;2.60;1.38;;;14.50;99.90;;;;;;5055584;28;20100;-75
2023/05/04 07:59:30;;;;;;;3.20;1.50;;;14.50;99.90;;;;;;5055451;28;20040;-75
2023/05/04 08:01:56;;;;;;;3.88;1.95;;;14.70;99.90;;;;;;5055594;28;20020;-75
2023/05/04 08:04:22;;;;;;;5.68;2.00;;;14.70;99.90;;;;;;5055531;28;20112;-75
2023/05/04 08:06:48;;;;;;;4.30;1.48;;;14.90;99.90;;;;;;5073401;28;20111;-75
2023/05/04 08:09:14;;;;;;;2.15;1.35;;;15.20;99.90;;;;;;5073283;28;20388;-75
2023/05/04 08:11:40;;;;;;;6.57;1.58;;;15.20;99.90;;;;;;5073511;28;20032;-75
2023/05/04 08:14:06;;;;;;;4.22;1.40;;;15.30;99.90;;;;;;5055337;28;20056;-75
2023/05/04 08:16:31;;;;;;;4.85;1.27;;;15.30;99.90;;;;;;5055486;28;20467;-75
2023/05/04 08:19:00;;;;;;;4.90;1.77;;;15.80;99.90;;;;;;5073328;28;20559;-75
2023/05/04 08:21:25;;;;;;;6.50;1.70;;;15.50;99.80;;;;;;5073234;28;20108;-75
2023/05/04 08:23:51;;;;;;;4.28;1.58;;;15.60;98.80;;;;;;5055275;28;20496;-75
2023/05/04 08:26:18;;;;;;;3.08;1.33;;;15.80;98.30;;;;;;5073246;28;20115;-75
2023/05/04 08:28:45;;;;;;;4.97;1.52;;;15.80;98.00;;;;;;5055127;28;20078;-75
2023/05/04 08:31:14;;;;;;;6.07;1.50;;;15.80;98.40;;;;;;5073140;28;20077;-75
2023/05/04 08:33:39;;;;;;;5.03;2.13;;;15.90;98.60;;;;;;5072982;28;20028;-75
2023/05/04 08:36:06;;;;;;;13.27;1.90;;;16.00;97.30;;;;;;5073052;28;20032;-75
2023/05/04 08:38:31;;;;;;;3.10;1.13;;;16.10;97.00;;;;;;5073041;28;20099;-75
2023/05/04 08:41:00;;;;;;;3.15;1.50;;;16.10;97.10;;;;;;5073620;28;20127;-75
2023/05/04 08:43:28;;;;;;;2.45;1.15;;;16.30;95.70;;;;;;5073098;28;20142;-75
2023/05/04 08:45:54;;;;;;;6.13;2.35;;;16.40;96.20;;;;;;5073078;28;20433;-75
2023/05/04 08:48:19;;;;;;;4.90;0.90;;;16.60;96.30;;;;;;5072832;28;20146;-75
2023/05/04 08:50:46;;;;;;;4.97;2.00;;;16.70;95.50;;;;;;5054948;28;20032;-75
2023/05/04 08:53:13;;;;;;;4.47;1.58;;;17.10;95.40;;;;;;5072961;28;20021;-75
2023/05/04 08:55:42;;;;;;;3.35;1.17;;;16.90;94.00;;;;;;5054957;28;20399;-75
2023/05/04 08:58:15;;;;;;;5.13;1.05;;;16.90;93.90;;;;;;5073781;28;20016;-75
2023/05/04 09:00:42;;;;;;;6.05;1.55;;;16.90;94.10;;;;;;5076973;28;20103;-75
2023/05/04 09:03:09;;;;;;;4.10;1.38;;;17.00;93.90;;;;;;5076903;28;20021;-75
2023/05/04 09:05:35;;;;;;;5.32;1.30;;;17.10;93.00;;;;;;5076771;28;20017;-75
2023/05/04 09:08:01;;;;;;;3.60;1.13;;;17.20;92.30;;;;;;5076737;28;20498;-75
2023/05/04 09:10:27;;;;;;;6.00;1.67;;;17.20;92.40;;;;;;5076673;28;20021;-75
2023/05/04 09:12:54;;;;;;;2.67;1.25;;;17.20;92.20;;;;;;5076749;28;20024;-73
2023/05/04 09:15:21;;;;;;;3.30;0.95;;;17.20;92.10;;;;;;5076717;28;20028;-73
2023/05/04 09:18:04;;;;;;;1.42;0.93;;;17.40;91.90;;;;;;5059352;28;20024;-73
2023/05/04 09:20:41;;;;;;;1.80;1.05;;;17.50;92.00;;;;;;5076610;28;20440;-74
2023/05/04 09:23:07;;;;;;;3.88;0.68;;;17.60;91.50;;;;;;5076480;28;20017;-74
2023/05/04 09:25:44;;;;;;;3.05;0.70;;;17.80;90.90;;;;;;5076340;28;20479;-74
2023/05/04 09:28:10;;;;;;;4.85;0.82;;;17.80;91.10;;;;;;5058475;28;20019;-73
2023/05/04 09:30:35;;;;;;;2.72;0.90;;;18.00;90.20;;;;;;5076790;28;20364;-74
2023/05/04 09:33:02;;;;;;;2.42;0.88;;;18.10;90.00;;;;;;5076370;28;20356;-73
2023/05/04 09:35:28;;;;;;;2.95;1.00;;;18.20;89.40;;;;;;5058272;28;20016;-75
2023/05/04 09:37:55;;;;;;;3.30;1.02;;;18.40;89.70;;;;;;5058031;28;20024;-75
2023/05/04 09:40:34;;;;;;;6.30;0.68;;;18.50;88.60;;;;;;5076232;28;20555;-75
2023/05/04 09:43:00;;;;;;;4.50;0.88;;;18.60;87.70;;;;;;5077220;28;20024;-75
2023/05/04 09:45:27;;;;;;;5.28;0.82;;;18.70;86.90;;;;;;5076067;28;20393;-76
2023/05/04 09:47:54;;;;;;;1.42;0.70;;;18.90;88.10;;;;;;5075827;28;20564;-75
2023/05/04 09:50:21;;;;;;;2.67;1.27;;;19.10;87.50;;;;;;5075977;28;20104;-75
2023/05/04 09:52:48;;;;;;;3.53;1.00;;;19.20;85.50;;;;;;5075845;28;20483;-75
2023/05/04 09:55:16;;;;;;;2.95;0.80;;;19.30;84.20;;;;;;5057806;28;20017;-75
2023/05/04 09:57:43;;;;;;;2.75;0.88;;;19.40;82.80;;;;;;5075864;28;20399;-76
2023/05/04 10:00:11;;;;;;;1.88;0.75;;;19.60;83.50;;;;;;5057718;28;20036;-75
2023/05/04 10:02:37;;;;;;;2.83;0.95;;;19.60;83.40;;;;;;5057685;28;20025;-75
2023/05/04 10:05:05;;;;;;;1.85;0.73;;;19.80;82.40;;;;;;5075603;28;20024;-75
2023/05/04 10:07:32;;;;;;;4.43;0.70;;;20.00;82.40;;;;;;5075618;28;20035;-75
2023/05/04 10:09:58;;;;;;;3.75;1.00;;;20.30;79.30;;;;;;5057105;28;20031;-75
2023/05/04 10:12:24;;;;;;;5.07;0.73;;;20.40;78.40;;;;;;5057420;28;20021;-75
2023/05/04 10:14:50;;;;;;;2.58;0.70;;;20.90;78.00;;;;;;5057554;28;20041;-75
2023/05/04 10:17:38;;;;;;;1.98;0.77;;;20.50;75.70;;;;;;5075826;28;20059;-75
2023/05/04 10:20:28;;;;;;;3.47;0.85;;;20.50;75.70;;;;;;5075404;28;20506;-75
2023/05/04 10:23:06;;;;;;;2.65;0.77;;;20.70;75.70;;;;;;5057361;28;20024;-75
2023/05/04 10:25:47;;;;;;;2.28;0.68;;;20.70;74.70;;;;;;5075358;28;20013;-76
2023/05/04 10:28:27;;;;;;;4.68;0.98;;;20.80;74.30;;;;;;5075213;28;20056;-75
2023/05/04 10:30:58;;;;;;;2.90;0.65;;;21.00;75.30;;;;;;5075250;28;20035;-75
2023/05/04 10:33:25;;;;;;;1.20;0.65;;;21.20;75.30;;;;;;5057189;28;20064;-75
2023/05/04 10:35:54;;;;;;;2.17;0.45;;;21.30;71.80;;;;;;5075006;28;20430;-75
2023/05/04 10:38:38;;;;;;;2.40;0.50;;;21.50;72.60;;;;;;5057337;28;20117;-75
2023/05/04 10:41:18;;;;;;;2.95;0.47;;;21.50;68.90;;;;;;5075028;28;20021;-75
2023/05/04 10:43:49;;;;;;;2.05;0.50;;;21.60;68.90;;;;;;5056923;28;20027;-75
2023/05/04 10:46:18;;;;;;;4.47;0.95;;;21.80;68.50;;;;;;5056983;28;20070;-75
2023/05/04 10:48:44;;;;;;;3.97;0.40;;;22.00;68.90;;;;;;5074837;28;20086;-75
2023/05/04 10:51:21;;;;;;;2.97;0.82;;;22.20;67.40;;;;;;5056776;28;20021;-75
2023/05/04 10:53:47;;;;;;;1.98;0.65;;;22.30;66.90;;;;;;5056824;28;20024;-75
2023/05/04 10:56:23;;;;;;;2.53;0.43;;;22.60;64.80;;;;;;5056699;28;20142;-75
2023/05/04 10:58:49;;;;;;;1.67;0.47;;;22.70;65.20;;;;;;5074855;28;20091;-75
2023/05/04 11:01:15;;;;;;;5.60;0.95;;;22.80;63.60;;;;;;5056569;28;20035;-75
2023/05/04 11:03:41;;;;;;;3.90;0.47;;;22.90;62.20;;;;;;5074562;28;20067;-75
2023/05/04 11:06:18;;;;;;;2.45;0.50;;;23.00;62.60;;;;;;5074435;28;20070;-75
2023/05/04 11:08:50;;;;;;;2.72;0.40;;;23.30;62.40;;;;;;5074354;28;20107;-75
2023/05/04 11:11:16;;;;;;;0.95;0.40;;;23.50;59.50;;;;;;5074472;28;20036;-75
2023/05/04 11:13:45;;;;;;;4.20;0.50;;;23.70;60.80;;;;;;5075099;28;20373;-75
2023/05/04 11:16:14;;;;;;;3.53;0.40;;;23.90;58.30;;;;;;5074821;28;20104;-75
2023/05/04 11:18:40;;;;;;;0.98;0.40;;;23.90;58.10;;;;;;5056458;28;20059;-76
2023/05/04 11:21:07;;;;;;;2.20;0.47;;;24.30;57.30;;;;;;5073357;28;20032;-76
2023/05/04 11:23:33;;;;;;;2.28;0.60;;;24.20;57.80;;;;;;5056104;28;20410;-76
2023/05/04 11:26:07;;;;;;;3.83;0.80;;;24.40;57.80;;;;;;5074043;28;20021;-76
2023/05/04 11:28:36;;;;;;;2.80;0.77;;;24.70;55.50;;;;;;5073952;28;20020;-76
2023/05/04 11:31:15;;;;;;;1.55;0.60;;;24.70;55.70;;;;;;5073859;28;20028;-76
2023/05/04 11:33:48;;;;;;;2.42;0.60;;;24.80;55.50;;;;;;5056401;28;20554;-76
2023/05/04 11:36:14;;;;;;;1.25;0.40;;;25.00;55.20;;;;;;5073889;28;20024;-76
2023/05/04 11:38:40;;;;;;;2.88;0.52;;;25.20;54.70;;;;;;5073833;28;20399;-76
2023/05/04 11:41:06;;;;;;;1.48;0.50;;;25.30;53.90;;;;;;5055845;28;20020;-76
2023/05/04 11:43:33;;;;;;;2.10;0.60;;;25.20;53.30;;;;;;5074278;28;20024;-76
2023/05/04 11:45:59;;;;;;;2.00;0.30;;;25.20;52.70;;;;;;5055828;28;20106;-76
2023/05/04 11:48:27;;;;;;;2.38;0.70;;;25.30;53.00;;;;;;5055657;28;20024;-76
2023/05/04 11:50:54;;;;;;;1.25;0.22;;;25.40;54.10;;;;;;5073593;28;20032;-76
2023/05/04 11:53:21;;;;;;;1.33;0.28;;;25.70;53.60;;;;;;5073519;28;20024;-76
2023/05/04 11:55:47;;;;;;;1.02;0.20;;;25.90;55.00;;;;;;5055638;28;20016;-76
2023/05/04 11:58:13;;;;;;;2.03;0.43;;;26.10;50.70;;;;;;5055332;28;20033;-76
2023/05/04 12:00:41;;;;;;;2.92;0.20;;;26.10;50.40;;;;;;5073527;28;20387;-76
2023/05/04 12:03:13;;;;;;;1.10;0.30;;;26.20;51.20;;;;;;5074076;28;20031;-76
2023/05/04 12:05:49;;;;;;;2.85;0.32;;;26.40;51.00;;;;;;5055498;28;20013;-76
2023/05/04 12:08:30;;;;;;;1.40;0.30;;;26.70;51.60;;;;;;5073847;28;20066;-76
2023/05/04 12:11:11;;;;;;;1.77;0.63;;;27.00;51.20;;;;;;5073331;28;20048;-76
2023/05/04 12:13:37;;;;;;;2.00;0.28;;;27.10;48.90;;;;;;5073438;28;20021;-76
2023/05/04 12:16:09;;;;;;;4.82;0.80;;;26.90;47.90;;;;;;5055343;28;20020;-76
2023/05/04 12:18:35;;;;;;;1.10;0.65;;;26.70;49.20;;;;;;5055276;28;20082;-76
2023/05/04 12:21:07;;;;;;;2.33;1.10;;;26.70;50.10;;;;;;5073841;28;20020;-76
2023/05/04 12:23:35;;;;;;;1.70;0.63;;;;;;;;;;5073159;28;20372;-76
2023/05/04 12:26:01;;;;;;;1.67;0.30;;;26.10;50.10;;;;;;5055396;28;20028;-76
2023/05/04 12:28:28;;;;;;;2.03;0.80;;;26.00;50.80;;;;;;5073182;28;20032;-76
2023/05/04 12:30:54;;;;;;;4.00;0.85;;;26.00;51.50;;;;;;5055233;28;20062;-76
2023/05/04 12:33:19;;;;;;;2.67;0.60;;;26.00;50.50;;;;;;5072948;28;20056;-76
2023/05/04 12:35:46;;;;;;;2.90;0.57;;;25.90;50.70;;;;;;5073129;28;20025;-76
2023/05/04 12:38:14;;;;;;;1.70;0.82;;;26.10;50.20;;;;;;5055019;28;20442;-76
2023/05/04 12:40:41;;;;;;;2.95;1.20;;;26.10;50.70;;;;;;5055123;28;20391;-76
2023/05/04 12:43:07;;;;;;;3.42;0.73;;;26.40;50.00;;;;;;5073022;28;20025;-76
2023/05/04 12:45:33;;;;;;;2.55;0.60;;;26.60;50.00;;;;;;5072996;28;20094;-76
2023/05/04 12:47:58;;;;;;;5.07;1.60;;;26.90;50.00;;;;;;5073017;28;20025;-76
2023/05/04 12:50:24;;;;;;;3.38;1.40;;;27.10;50.20;;;;;;5072933;28;20166;-76
2023/05/04 12:52:50;;;;;;;5.13;1.40;;;27.40;49.70;;;;;;5073410;28;20028;-76